Time;durP1;ratioP1;P1;durP2;ratioP2;P2;SDS_P1;SDS_P2;PMS_P1;PMS_P2;Temp;Humidity;BMP_temperature;BMP_pressure;BME280_temperature;BME280_humidity;BME280_pressure;Samples;Min_cycle;Max_cycle;Signal;HPM_P1;HPM_P2
2022/10/21 00:01:54;;;;;;;4.45;3.22;;;;;;;3.72;63.58;99855.78;6233432;22;20023;-72
2022/10/21 00:04:18;;;;;;;3.17;2.88;;;;;;;3.73;63.44;99855.69;6233899;22;20016;-72
2022/10/21 00:06:45;;;;;;;3.80;2.55;;;;;;;3.73;63.60;99847.78;6235042;22;20529;-72
2022/10/21 00:09:10;;;;;;;3.03;2.72;;;;;;;3.76;63.60;99850.28;6208023;22;20020;-70
2022/10/21 00:11:34;;;;;;;6.00;3.15;;;;;;;3.79;63.47;99857.22;6206481;22;20016;-71
2022/10/21 00:13:59;;;;;;;5.57;3.20;;;;;;;3.81;63.30;99850.97;6230939;22;20016;-72
2022/10/21 00:16:23;;;;;;;4.63;2.47;;;;;;;3.84;63.55;99842.91;6229506;22;20015;-75
2022/10/21 00:18:48;;;;;;;4.78;2.90;;;;;;;3.83;63.24;99835.09;6230939;22;20024;-71
2022/10/21 00:21:19;;;;;;;4.93;2.60;;;;;;;3.86;63.16;99840.22;6230942;22;20035;-70
2022/10/21 00:23:44;;;;;;;4.45;3.13;;;;;;;3.87;63.47;99837.53;6228595;22;20106;-70
2022/10/21 00:26:11;;;;;;;4.38;2.60;;;;;;;3.89;63.31;99834.84;6229151;22;20018;-71
2022/10/21 00:28:35;;;;;;;4.32;2.60;;;;;;;3.88;63.42;99831.34;6239232;22;20046;-70
2022/10/21 00:31:00;;;;;;;5.32;2.90;;;;;;;3.92;63.45;99834.72;6232599;22;20019;-71
2022/10/21 00:33:26;;;;;;;3.92;2.70;;;;;;;3.96;63.25;99815.19;6230117;22;20015;-73
2022/10/21 00:35:53;;;;;;;2.75;2.13;;;;;;;3.98;63.44;99811.56;6229262;22;20015;-73
2022/10/21 00:38:18;;;;;;;5.45;2.78;;;;;;;3.98;63.53;99803.66;6232178;22;20026;-71
2022/10/21 00:40:43;;;;;;;3.55;2.50;;;;;;;4.00;62.96;99803.59;6230874;22;20016;-72
2022/10/21 00:43:09;;;;;;;2.22;2.03;;;;;;;4.03;63.21;99797.34;6229990;22;20421;-71
2022/10/21 00:45:34;;;;;;;2.42;2.22;;;;;;;4.02;63.54;99791.22;6229937;22;20051;-71
2022/10/21 00:48:03;;;;;;;2.22;2.10;;;;;;;4.03;63.12;99794.69;6231538;22;20020;-71
2022/10/21 00:50:35;;;;;;;5.18;2.20;;;;;;;4.01;63.10;99797.41;6233986;22;20019;-71
2022/10/21 00:53:00;;;;;;;3.40;3.10;;;;;;;4.01;63.22;99802.69;6232856;22;20023;-73
2022/10/21 00:55:27;;;;;;;3.28;2.05;;;;;;;3.95;63.01;99811.69;6230901;22;20026;-70
2022/10/21 00:57:53;;;;;;;3.63;2.47;;;;;;;3.94;63.83;99812.63;6232424;22;20075;-73
2022/10/21 01:00:18;;;;;;;2.55;2.08;;;;;;;3.93;63.89;99812.69;6230607;22;20012;-70
2022/10/21 01:02:43;;;;;;;3.53;2.67;;;;;;;3.94;63.69;99817.06;6231695;22;20043;-71
2022/10/21 01:05:09;;;;;;;6.70;2.40;;;;;;;3.92;63.53;99811.84;6231147;22;20016;-70
2022/10/21 01:07:34;;;;;;;6.57;2.55;;;;;;;3.94;63.63;99820.56;6232541;22;20038;-75
2022/10/21 01:09:58;;;;;;;2.65;2.28;;;;;;;3.96;63.76;99829.22;6230282;22;20007;-77
2022/10/21 01:12:42;;;;;;;4.53;2.63;;;;;;;4.00;63.87;99816.78;6229414;22;20023;-76
2022/10/21 01:15:46;;;;;;;3.50;2.73;;;;;;;4.09;63.51;99821.66;6229871;22;20430;-76
2022/10/21 01:18:56;;;;;;;2.60;2.20;;;;;;;4.09;63.63;99828.72;6209431;22;20465;-73
2022/10/21 01:21:29;;;;;;;4.50;2.70;;;;;;;4.04;63.41;99817.53;6229807;22;20057;-74
2022/10/21 01:24:23;;;;;;;2.70;2.30;;;;;;;4.04;63.48;99814.88;6228717;22;20012;-73
2022/10/21 01:27:00;;;;;;;3.08;2.70;;;;;;;3.99;63.74;99809.78;6177560;22;20569;-74
2022/10/21 01:30:04;;;;;;;4.63;2.55;;;;;;;4.04;63.75;99817.53;6230046;22;20101;-74
2022/10/21 01:32:57;;;;;;;5.28;2.38;;;;;;;4.05;63.67;99820.09;6228362;22;20113;-73
2022/10/21 01:35:47;;;;;;;2.70;2.45;;;;;;;4.02;64.38;99809.66;6230740;22;20023;-66
2022/10/21 01:38:17;;;;;;;2.70;2.50;;;;;;;4.03;64.15;99813.16;6230325;22;20015;-67
2022/10/21 01:41:03;;;;;;;3.72;3.10;;;;;;;4.09;64.31;99807.63;6230704;22;20020;-68
2022/10/21 01:43:31;;;;;;;3.55;2.60;;;;;;;4.09;64.35;99816.38;6228419;22;20020;-74
2022/10/21 01:46:01;;;;;;;3.67;3.22;;;;;;;4.01;64.50;99811.44;6231250;22;20034;-75
2022/10/21 01:48:39;;;;;;;3.20;2.25;;;;;;;4.04;64.30;99813.09;6229819;22;20019;-75
2022/10/21 01:51:06;;;;;;;4.30;2.30;;;;;;;4.01;64.86;99814.09;6230049;22;20020;-75
2022/10/21 01:53:43;;;;;;;3.05;2.65;;;;;;;4.08;64.50;99811.16;6228727;22;20037;-75
2022/10/21 01:56:10;;;;;;;3.92;2.40;;;;;;;4.05;64.33;99813.97;6202779;22;20068;-75
2022/10/21 01:58:38;;;;;;;3.00;2.47;;;;;;;4.06;64.52;99818.31;6228193;22;20022;-74
2022/10/21 02:01:05;;;;;;;2.90;2.60;;;;;;;4.05;64.95;99816.59;6230267;22;20739;-70
2022/10/21 02:03:37;;;;;;;4.97;2.70;;;;;;;4.07;65.18;99818.22;6230259;22;20020;-66
2022/10/21 02:06:02;;;;;;;4.03;3.15;;;;;;;4.05;65.03;99819.25;6230822;22;20062;-66
2022/10/21 02:08:27;;;;;;;4.78;2.83;;;;;;;4.03;64.88;99811.38;6228207;22;20019;-69
2022/10/21 02:10:55;;;;;;;3.33;2.20;;;;;;;4.07;65.22;99812.09;6228259;22;20029;-70
2022/10/21 02:13:28;;;;;;;4.63;2.47;;;;;;;3.99;64.94;99815.06;6228134;22;20008;-70
2022/10/21 02:15:56;;;;;;;3.72;2.60;;;;;;;4.00;65.08;99817.66;6231584;22;20058;-71
2022/10/21 02:18:23;;;;;;;4.35;2.35;;;;;;;3.99;65.27;99815.94;6230889;22;20363;-71
2022/10/21 02:20:52;;;;;;;4.22;2.78;;;;;;;4.05;65.52;99819.25;6231254;22;20027;-70
2022/10/21 02:23:22;;;;;;;4.15;2.80;;;;;;;4.03;65.55;99831.63;6230961;22;20451;-71
2022/10/21 02:25:49;;;;;;;2.95;2.40;;;;;;;4.02;65.44;99833.41;6229975;22;20019;-70
2022/10/21 02:28:15;;;;;;;3.53;2.63;;;;;;;3.98;65.64;99837.09;6229498;22;20020;-71
2022/10/21 02:31:03;;;;;;;3.38;2.40;;;;;;;4.01;65.92;99839.59;6231358;22;20020;-71
2022/10/21 02:33:44;;;;;;;3.45;2.35;;;;;;;3.99;66.12;99837.03;6230919;22;20531;-71
2022/10/21 02:36:18;;;;;;;7.55;2.85;;;;;;;3.98;66.24;99839.72;6231653;22;20023;-71
2022/10/21 02:38:48;;;;;;;5.38;3.67;;;;;;;3.94;66.47;99844.28;6230532;22;20016;-70
2022/10/21 02:41:17;;;;;;;2.97;2.15;;;;;;;3.91;66.14;99844.41;6232910;22;20054;-71
2022/10/21 02:43:54;;;;;;;6.03;2.75;;;;;;;3.94;66.79;99839.00;6233405;22;20395;-70
2022/10/21 02:46:19;;;;;;;2.25;2.00;;;;;;;3.89;66.35;99837.47;6229860;22;20061;-75
2022/10/21 02:48:45;;;;;;;3.92;3.00;;;;;;;3.90;66.69;99841.81;6232452;22;20103;-70
2022/10/21 02:51:11;;;;;;;4.25;2.50;;;;;;;3.90;67.08;99834.78;6232907;22;20020;-70
2022/10/21 02:53:36;;;;;;;7.30;3.03;;;;;;;3.90;67.07;99833.91;6233497;22;20046;-77
2022/10/21 02:56:00;;;;;;;2.50;2.28;;;;;;;3.91;67.14;99830.34;6234241;22;20011;-71
2022/10/21 02:58:25;;;;;;;2.50;2.30;;;;;;;3.91;67.15;99836.50;6233201;22;20042;-76
2022/10/21 03:00:53;;;;;;;3.00;2.53;;;;;;;3.92;67.35;99830.31;6207321;22;20086;-70
2022/10/21 03:03:17;;;;;;;3.25;2.88;;;;;;;3.91;67.53;99831.22;6233633;22;20016;-71
2022/10/21 03:05:42;;;;;;;5.57;2.47;;;;;;;3.93;67.33;99828.53;6233008;22;20153;-72
2022/10/21 03:08:07;;;;;;;3.10;2.30;;;;;;;3.92;67.37;99822.38;6231691;22;20347;-72
2022/10/21 03:10:31;;;;;;;7.22;2.60;;;;;;;3.93;67.70;99820.63;6232954;22;20015;-73
2022/10/21 03:12:57;;;;;;;3.13;1.92;;;;;;;3.90;67.85;99816.31;6234626;22;20034;-71
2022/10/21 03:15:22;;;;;;;4.15;2.53;;;;;;;3.86;67.67;99825.25;6240526;22;20011;-72
2022/10/21 03:17:46;;;;;;;3.63;2.58;;;;;;;3.83;67.62;99819.28;6247772;22;20027;-74
2022/10/21 03:20:11;;;;;;;3.90;2.80;;;;;;;3.75;68.14;99822.22;6247708;22;20067;-72
2022/10/21 03:22:35;;;;;;;4.03;2.35;;;;;;;3.74;68.19;99828.41;6242465;22;20026;-67
2022/10/21 03:25:00;;;;;;;4.20;2.42;;;;;;;3.72;68.17;99832.03;6232999;22;20129;-68
2022/10/21 03:27:25;;;;;;;3.33;2.20;;;;;;;3.73;68.09;99823.19;6230655;22;20015;-71
2022/10/21 03:29:50;;;;;;;5.82;3.15;;;;;;;3.69;68.55;99830.38;6228874;22;20023;-71
2022/10/21 03:32:15;;;;;;;4.18;2.58;;;;;;;3.73;68.51;99826.69;6229881;22;20012;-72
2022/10/21 03:34:39;;;;;;;3.95;2.40;;;;;;;3.72;68.26;99818.88;6228818;22;20073;-70
2022/10/21 03:37:04;;;;;;;5.00;2.83;;;;;;;3.70;68.47;99829.47;6230376;22;20028;-72
2022/10/21 03:39:28;;;;;;;7.53;2.50;;;;;;;3.69;68.56;99830.38;6229611;22;20022;-71
2022/10/21 03:41:53;;;;;;;6.10;2.90;;;;;;;3.69;68.53;99830.38;6229982;22;20469;-71
2022/10/21 03:44:17;;;;;;;3.08;2.40;;;;;;;3.73;68.86;99839.88;6230510;22;20016;-70
2022/10/21 03:46:42;;;;;;;3.88;2.38;;;;;;;3.72;68.59;99838.19;6232061;22;20031;-72
2022/10/21 03:49:08;;;;;;;3.67;2.63;;;;;;;3.77;68.81;99830.91;6231337;22;20019;-70
2022/10/21 03:51:33;;;;;;;4.70;2.35;;;;;;;3.77;68.44;99832.69;6230030;22;20023;-72
2022/10/21 03:53:58;;;;;;;6.35;2.65;;;;;;;3.80;68.64;99827.31;6229580;22;20039;-71
2022/10/21 03:56:22;;;;;;;4.50;2.80;;;;;;;3.76;68.50;99826.56;6228144;22;20473;-70
2022/10/21 03:58:47;;;;;;;7.78;2.60;;;;;;;3.79;68.59;99826.44;6202804;22;20450;-69
2022/10/21 04:01:12;;;;;;;4.80;2.78;;;;;;;3.81;68.62;99829.88;6227245;22;20011;-69
2022/10/21 04:03:37;;;;;;;8.68;2.80;;;;;;;3.81;68.49;99821.13;6229531;22;20386;-69
2022/10/21 04:06:02;;;;;;;3.38;2.88;;;;;;;3.79;68.82;99833.50;6227568;22;20456;-70
2022/10/21 04:08:26;;;;;;;3.55;2.58;;;;;;;3.79;68.75;99829.09;6227482;22;20444;-70
2022/10/21 04:10:51;;;;;;;3.45;2.67;;;;;;;3.77;68.90;99820.38;6229087;22;20016;-70
2022/10/21 04:13:15;;;;;;;3.75;2.60;;;;;;;3.80;68.95;99833.44;6229765;22;20538;-67
2022/10/21 04:15:40;;;;;;;4.70;2.33;;;;;;;3.82;69.11;99828.09;6227799;22;20047;-67
2022/10/21 04:18:06;;;;;;;4.13;2.92;;;;;;;3.84;69.08;99848.19;6229845;22;20019;-66
2022/10/21 04:20:30;;;;;;;6.30;3.00;;;;;;;3.87;69.21;99837.53;6227395;22;20019;-64
2022/10/21 04:22:55;;;;;;;5.78;2.85;;;;;;;3.90;68.97;99836.56;6228742;22;20020;-67
2022/10/21 04:25:19;;;;;;;2.85;2.53;;;;;;;3.90;69.03;99836.56;6229032;22;20054;-66
2022/10/21 04:27:44;;;;;;;3.53;2.47;;;;;;;3.87;68.78;99834.91;6229511;22;20375;-66
2022/10/21 04:30:09;;;;;;;6.53;3.45;;;;;;;3.89;69.08;99848.03;6227587;22;20016;-67
2022/10/21 04:32:34;;;;;;;2.85;2.55;;;;;;;3.92;68.89;99843.50;6228841;22;20022;-67
2022/10/21 04:34:59;;;;;;;7.38;3.75;;;;;;;3.96;68.79;99845.06;6227796;22;20019;-69
2022/10/21 04:37:24;;;;;;;4.22;2.67;;;;;;;4.03;68.63;99850.09;6227177;22;20012;-68
2022/10/21 04:39:50;;;;;;;3.42;2.72;;;;;;;4.08;68.64;99856.03;6227400;22;20098;-70
2022/10/21 04:42:15;;;;;;;3.00;2.67;;;;;;;4.10;69.03;99852.41;6229180;22;20040;-71
2022/10/21 04:44:40;;;;;;;3.63;2.47;;;;;;;4.14;68.56;99850.50;6229360;22;20011;-71
2022/10/21 04:47:05;;;;;;;5.00;2.28;;;;;;;4.16;68.81;99849.53;6228762;22;20019;-71
2022/10/21 04:49:30;;;;;;;6.85;2.97;;;;;;;4.16;68.57;99856.59;6229065;22;20020;-70
2022/10/21 04:51:54;;;;;;;7.00;3.10;;;;;;;4.19;68.70;99849.38;6229326;22;20018;-70
2022/10/21 04:54:19;;;;;;;6.97;3.28;;;;;;;4.20;68.58;99848.47;6229657;22;20022;-71
2022/10/21 04:56:43;;;;;;;3.67;2.70;;;;;;;4.23;68.71;99845.69;6227874;22;20025;-71
2022/10/21 04:59:08;;;;;;;6.63;2.60;;;;;;;4.26;68.59;99847.34;6202758;22;20023;-69
2022/10/21 05:01:33;;;;;;;2.67;2.45;;;;;;;4.27;68.60;99847.28;6229859;22;20094;-70
2022/10/21 05:03:57;;;;;;;5.50;3.13;;;;;;;4.29;68.42;99845.41;6229466;22;20020;-70
2022/10/21 05:06:22;;;;;;;5.75;2.83;;;;;;;4.32;68.45;99847.94;6227869;22;20027;-69
2022/10/21 05:08:46;;;;;;;3.55;2.72;;;;;;;4.35;68.83;99849.59;6229598;22;20466;-71
2022/10/21 05:11:11;;;;;;;5.28;3.20;;;;;;;4.38;68.30;99849.47;6229215;22;20055;-71
2022/10/21 05:13:35;;;;;;;4.45;3.08;;;;;;;4.42;68.35;99844.91;6229668;22;20038;-69
2022/10/21 05:16:02;;;;;;;4.55;3.13;;;;;;;4.44;68.49;99849.19;6229290;22;20122;-71
2022/10/21 05:18:28;;;;;;;2.92;2.72;;;;;;;4.43;68.21;99847.47;6202147;22;20066;-71
2022/10/21 05:20:53;;;;;;;6.30;2.78;;;;;;;4.49;68.53;99847.22;6226330;22;20024;-71
2022/10/21 05:23:19;;;;;;;3.42;2.63;;;;;;;4.55;68.30;99846.94;6224952;22;20107;-70
2022/10/21 05:25:44;;;;;;;5.05;2.72;;;;;;;4.59;68.19;99840.63;6225968;22;20069;-70
2022/10/21 05:28:09;;;;;;;6.80;3.10;;;;;;;4.63;68.25;99838.69;6229527;22;20051;-71
2022/10/21 05:30:34;;;;;;;6.40;3.40;;;;;;;4.66;67.91;99843.84;6228660;22;20011;-71
2022/10/21 05:32:58;;;;;;;3.65;2.67;;;;;;;4.68;67.81;99852.56;6229162;22;20103;-69
2022/10/21 05:35:23;;;;;;;3.78;3.20;;;;;;;4.71;68.03;99852.44;6230677;22;20033;-71
2022/10/21 05:37:47;;;;;;;5.00;2.60;;;;;;;4.69;67.86;99862.19;6203968;22;20011;-68
2022/10/21 05:40:12;;;;;;;6.80;2.95;;;;;;;4.68;67.81;99858.69;6231265;22;20351;-68
2022/10/21 05:42:36;;;;;;;4.72;3.40;;;;;;;4.68;68.37;99863.13;6231954;22;20016;-68
2022/10/21 05:45:01;;;;;;;7.30;3.00;;;;;;;4.74;68.43;99870.75;6231905;22;20051;-68
2022/10/21 05:47:27;;;;;;;10.82;3.72;;;;;;;4.77;68.26;99880.34;6231017;22;20065;-67
2022/10/21 05:49:51;;;;;;;5.97;3.28;;;;;;;4.82;68.59;99889.78;6231091;22;20019;-68
2022/10/21 05:52:16;;;;;;;5.38;3.30;;;;;;;4.83;68.00;99883.56;6229492;22;20038;-68
2022/10/21 05:54:41;;;;;;;4.50;3.03;;;;;;;4.86;67.89;99877.28;6231000;22;20098;-67
2022/10/21 05:57:05;;;;;;;8.73;2.92;;;;;;;4.85;67.60;99878.22;6230807;22;20011;-67
2022/10/21 05:59:30;;;;;;;6.90;3.17;;;;;;;4.88;68.27;99886.00;6231363;22;20011;-68
2022/10/21 06:01:55;;;;;;;7.35;2.95;;;;;;;4.90;68.29;99879.72;6229447;22;20020;-68
2022/10/21 06:04:20;;;;;;;9.43;3.30;;;;;;;4.95;67.68;99876.88;6230961;22;20510;-68
2022/10/21 06:06:45;;;;;;;4.30;3.08;;;;;;;4.99;67.96;99878.44;6231191;22;20019;-68
2022/10/21 06:09:09;;;;;;;12.85;4.05;;;;;;;5.00;67.25;99880.16;6231038;22;20086;-68
2022/10/21 06:11:34;;;;;;;7.18;2.67;;;;;;;5.06;67.50;99872.84;6230106;22;20050;-68
2022/10/21 06:13:58;;;;;;;11.38;3.40;;;;;;;5.17;68.06;99876.78;6203533;22;20019;-67
2022/10/21 06:16:23;;;;;;;6.50;3.30;;;;;;;5.25;67.68;99880.78;6230750;22;20145;-69
2022/10/21 06:18:48;;;;;;;6.55;3.75;;;;;;;5.29;67.00;99879.72;6231058;22;20026;-70
2022/10/21 06:21:13;;;;;;;8.13;2.88;;;;;;;5.31;66.89;99876.97;6229468;22;20042;-68
2022/10/21 06:23:38;;;;;;;6.45;3.42;;;;;;;5.33;66.92;99873.34;6230249;22;20047;-69
2022/10/21 06:26:05;;;;;;;5.97;3.22;;;;;;;5.37;67.04;99876.72;6230587;22;20023;-70
2022/10/21 06:28:32;;;;;;;5.82;3.70;;;;;;;5.35;66.89;99881.22;6228971;22;20026;-70
2022/10/21 06:30:58;;;;;;;4.40;3.00;;;;;;;5.39;67.13;99877.50;6230650;22;20011;-70
2022/10/21 06:33:23;;;;;;;6.70;3.65;;;;;;;5.44;66.79;99891.34;6228777;22;20434;-71
2022/10/21 06:35:48;;;;;;;4.20;3.22;;;;;;;5.46;67.12;99894.78;6229072;22;20092;-71
2022/10/21 06:38:13;;;;;;;6.63;3.80;;;;;;;5.41;67.40;99891.50;6230644;22;20019;-67
2022/10/21 06:40:38;;;;;;;5.22;3.40;;;;;;;5.38;66.93;99899.56;6230040;22;20094;-68
2022/10/21 06:43:03;;;;;;;10.05;3.08;;;;;;;5.36;67.53;99896.13;6230620;22;20054;-67
2022/10/21 06:45:27;;;;;;;4.82;3.55;;;;;;;5.33;67.21;99891.84;6228200;22;20027;-68
2022/10/21 06:47:52;;;;;;;7.07;3.53;;;;;;;5.33;66.96;99897.13;6230002;22;20613;-66
2022/10/21 06:50:17;;;;;;;4.90;3.65;;;;;;;5.33;67.17;99898.91;6230367;22;20019;-67
2022/10/21 06:52:41;;;;;;;5.95;3.80;;;;;;;5.34;66.84;99898.84;6230197;22;20016;-68
2022/10/21 06:55:06;;;;;;;6.30;3.70;;;;;;;5.35;67.44;99892.63;6230478;22;20065;-67
2022/10/21 06:57:32;;;;;;;7.75;4.05;;;;;;;5.45;67.37;99885.13;6203260;22;20012;-67
2022/10/21 06:59:57;;;;;;;4.50;3.35;;;;;;;5.56;67.33;99889.91;6229182;22;20038;-68
2022/10/21 07:02:23;;;;;;;5.30;3.65;;;;;;;5.65;66.61;99882.41;6228564;22;20015;-68
2022/10/21 07:04:48;;;;;;;4.40;3.17;;;;;;;5.74;66.20;99884.63;6229930;22;20450;-68
2022/10/21 07:07:12;;;;;;;6.35;3.50;;;;;;;5.84;66.53;99887.69;6228178;22;20043;-68
2022/10/21 07:09:37;;;;;;;4.65;3.15;;;;;;;5.95;66.61;99879.25;6229784;22;20023;-69
2022/10/21 07:12:02;;;;;;;5.90;3.63;;;;;;;6.04;65.62;99873.50;6227880;22;20347;-66
2022/10/21 07:14:26;;;;;;;14.80;3.53;;;;;;;6.11;65.67;99875.78;6230321;22;20023;-66
2022/10/21 07:16:52;;;;;;;8.32;3.58;;;;;;;6.17;65.35;99870.19;6229992;22;20043;-67
2022/10/21 07:19:17;;;;;;;8.70;4.30;;;;;;;6.22;65.29;99874.38;6228565;22;20023;-67
2022/10/21 07:21:41;;;;;;;9.73;4.53;;;;;;;6.29;65.30;99876.66;6228544;22;20026;-65
2022/10/21 07:24:06;;;;;;;3.55;2.80;;;;;;;6.37;64.74;99869.19;6235127;22;20446;-66
2022/10/21 07:26:33;;;;;;;4.07;3.05;;;;;;;6.48;64.96;99868.63;6231705;22;20106;-69
2022/10/21 07:28:59;;;;;;;8.70;3.08;;;;;;;6.53;64.29;99862.19;6229778;22;20520;-67
2022/10/21 07:31:24;;;;;;;3.75;3.10;;;;;;;6.60;64.48;99860.06;6229924;22;20015;-66
2022/10/21 07:33:48;;;;;;;10.07;3.38;;;;;;;6.71;63.56;99863.00;6229874;22;20016;-66
2022/10/21 07:36:17;;;;;;;5.55;3.45;;;;;;;6.78;63.57;99867.03;6230809;22;20038;-67
2022/10/21 07:38:45;;;;;;;5.00;3.35;;;;;;;6.80;63.09;99867.81;6230871;22;20047;-66
2022/10/21 07:41:14;;;;;;;6.55;3.28;;;;;;;6.89;63.01;99877.94;6227910;22;20015;-68
2022/10/21 07:43:39;;;;;;;8.25;3.50;;;;;;;6.91;63.43;99862.81;6227980;22;20015;-69
2022/10/21 07:46:04;;;;;;;10.23;3.83;;;;;;;6.95;63.37;99860.88;6228280;22;20021;-68
2022/10/21 07:48:29;;;;;;;9.20;3.67;;;;;;;7.06;63.24;99863.78;6227923;22;20019;-68
2022/10/21 07:51:02;;;;;;;4.40;2.88;;;;;;;7.25;63.04;99880.41;6229522;22;20329;-66
2022/10/21 07:53:26;;;;;;;9.73;4.07;;;;;;;7.29;62.19;99879.31;6230356;22;20016;-67
2022/10/21 07:56:00;;;;;;;15.02;3.80;;;;;;;7.40;62.35;99889.34;6229077;22;20011;-69
2022/10/21 07:58:25;;;;;;;11.55;4.07;;;;;;;7.35;61.98;99882.56;6228880;22;20015;-70
2022/10/21 08:00:50;;;;;;;4.90;3.15;;;;;;;7.32;62.11;99886.25;6229241;22;20026;-69
2022/10/21 08:03:14;;;;;;;5.18;3.53;;;;;;;7.29;61.95;99878.47;6229213;22;20462;-69
2022/10/21 08:05:40;;;;;;;6.35;3.28;;;;;;;7.23;61.59;99892.91;6229089;22;20023;-70
2022/10/21 08:08:05;;;;;;;6.15;3.50;;;;;;;7.20;61.57;99885.13;6227905;22;20031;-69
2022/10/21 08:10:29;;;;;;;7.70;3.70;;;;;;;7.19;62.14;99888.72;6227913;22;20019;-69
2022/10/21 08:12:54;;;;;;;5.93;3.42;;;;;;;7.15;62.39;99884.50;6229117;22;20106;-69
2022/10/21 08:15:19;;;;;;;6.70;4.05;;;;;;;7.14;62.47;99884.59;6229458;22;20015;-71
2022/10/21 08:17:43;;;;;;;7.45;4.15;;;;;;;7.13;62.59;99890.81;6229148;22;20019;-71
2022/10/21 08:20:08;;;;;;;8.07;4.05;;;;;;;7.11;62.75;99898.03;6229478;22;20417;-71
2022/10/21 08:22:33;;;;;;;4.13;3.28;;;;;;;7.09;63.14;99884.84;6230003;22;20106;-71
2022/10/21 08:24:57;;;;;;;5.50;3.70;;;;;;;7.05;62.23;99880.63;6229319;22;20051;-71
2022/10/21 08:27:22;;;;;;;7.88;3.92;;;;;;;6.98;63.18;99876.59;6229690;22;20043;-72
2022/10/21 08:29:47;;;;;;;5.40;3.13;;;;;;;6.97;63.06;99884.63;6229461;22;20015;-72
2022/10/21 08:32:12;;;;;;;3.70;2.90;;;;;;;6.99;62.94;99883.63;6229554;22;20019;-72
2022/10/21 08:34:37;;;;;;;4.18;3.30;;;;;;;7.00;63.19;99880.00;6229578;22;20016;-71
2022/10/21 08:37:01;;;;;;;10.82;3.60;;;;;;;7.01;63.82;99875.56;6231004;22;20462;-71
2022/10/21 08:39:26;;;;;;;15.60;4.43;;;;;;;7.02;63.13;99877.28;6232626;22;20332;-72
2022/10/21 08:42:11;;;;;;;5.50;4.40;;;;;;;7.13;63.68;99877.56;6232180;22;20022;-69
2022/10/21 08:44:58;;;;;;;;;;;;;;;7.26;62.91;99876.81;6232150;22;20019;-69
2022/10/21 08:47:35;;;;;;;6.47;3.67;;;;;;;7.17;62.62;99865.88;6239012;22;20235;-71
2022/10/21 08:50:05;;;;;;;5.55;3.58;;;;;;;7.22;62.26;99864.66;6239507;22;20351;-70
2022/10/21 08:52:36;;;;;;;5.28;3.25;;;;;;;7.26;62.65;99868.88;6240476;22;20016;-69
2022/10/21 08:55:05;;;;;;;7.53;3.55;;;;;;;7.31;62.32;99871.28;6241153;22;20015;-69
2022/10/21 08:57:33;;;;;;;7.88;3.78;;;;;;;7.32;62.01;99873.00;6229065;22;20019;-69
2022/10/21 08:59:57;;;;;;;6.32;4.82;;;;;;;7.35;62.12;99869.31;6228195;22;20846;-70
2022/10/21 09:02:28;;;;;;;6.72;4.22;;;;;;;7.41;62.91;99864.53;6229006;22;20450;-69
2022/10/21 09:05:34;;;;;;;8.82;4.20;;;;;;;7.63;62.50;99872.16;6229268;22;20102;-69
2022/10/21 09:07:58;;;;;;;;;;;;;;;7.81;62.49;99868.47;6106987;23;20023;-70
2022/10/21 09:10:42;;;;;;;;;;;;;;;7.96;62.08;99875.56;6081896;23;20423;-70
2022/10/21 09:13:24;;;;;;;6.45;3.53;;;;;;;7.97;61.16;99876.44;6106665;23;20364;-71
2022/10/21 09:16:18;;;;;;;10.75;3.45;;;;;;;8.03;61.18;99874.25;6106694;23;20043;-71
2022/10/21 09:18:48;;;;;;;5.50;4.13;;;;;;;8.02;61.31;99877.00;6106519;23;20031;-70
2022/10/21 09:21:39;;;;;;;6.85;3.97;;;;;;;8.13;61.50;99879.88;6081955;23;20022;-70
2022/10/21 09:24:35;;;;;;;9.48;4.35;;;;;;;8.10;60.99;99872.13;6104353;23;20021;-70
2022/10/21 09:27:02;;;;;;;8.07;4.57;;;;;;;7.95;60.53;99880.97;6018987;23;20023;-70
2022/10/21 09:29:39;;;;;;;11.23;4.80;;;;;;;8.01;60.84;99883.28;6019769;23;20025;-71
2022/10/21 09:32:16;;;;;;;9.32;4.50;;;;;;;8.08;60.78;99878.47;6020140;23;20023;-70
2022/10/21 09:34:54;;;;;;;8.23;4.55;;;;;;;8.09;60.10;99875.72;6020113;23;20019;-69
2022/10/21 09:37:36;;;;;;;8.88;4.13;;;;;;;8.08;60.38;99881.97;5995446;23;20022;-70
2022/10/21 09:40:16;;;;;;;16.27;7.00;;;;;;;8.10;60.36;99880.09;6165895;23;20460;-70
2022/10/21 09:42:41;;;;;;;18.02;5.97;;;;;;;8.02;60.51;99877.00;6165096;23;20032;-70
2022/10/21 09:45:24;;;;;;;19.13;5.10;;;;;;;7.99;59.99;99887.81;6165714;23;20020;-69
2022/10/21 09:47:55;;;;;;;8.18;4.07;;;;;;;7.96;60.87;99882.66;6165638;23;20055;-70
2022/10/21 09:50:20;;;;;;;12.02;4.50;;;;;;;7.84;60.69;99878.06;6165494;23;20078;-70
2022/10/21 09:52:51;;;;;;;11.35;4.13;;;;;;;7.88;60.96;99885.78;6115543;23;20008;-69
2022/10/21 09:55:16;;;;;;;8.60;4.38;;;;;;;7.89;61.07;99884.84;6165646;23;20023;-70
2022/10/21 09:57:48;;;;;;;12.80;4.32;;;;;;;7.89;60.86;99886.63;6165962;23;20021;-70
2022/10/21 10:00:12;;;;;;;6.82;4.47;;;;;;;7.77;61.33;99882.00;6141967;23;20455;-70
2022/10/21 10:02:44;;;;;;;6.53;4.10;;;;;;;7.74;61.66;99882.16;6168126;22;20376;-71
2022/10/21 10:05:37;;;;;;;12.07;4.63;;;;;;;7.72;61.94;99884.91;6229171;22;20020;-71
2022/10/21 10:08:35;;;;;;;8.63;4.00;;;;;;;7.68;61.99;99879.84;6228766;22;20024;-71
2022/10/21 10:11:20;;;;;;;11.07;4.72;;;;;;;7.49;62.43;99872.91;6206687;22;20347;-69
2022/10/21 10:13:48;;;;;;;7.60;4.47;;;;;;;7.29;62.70;99881.13;6226459;22;20012;-72
2022/10/21 10:16:25;;;;;;;6.95;3.90;;;;;;;7.23;63.19;99873.47;6228681;22;20019;-71
2022/10/21 10:19:08;;;;;;;5.05;3.92;;;;;;;7.18;63.26;99878.19;6228121;22;20024;-71
2022/10/21 10:21:33;;;;;;;7.95;3.70;;;;;;;7.23;63.40;99876.13;6229417;22;20023;-70
2022/10/21 10:24:04;;;;;;;6.38;3.83;;;;;;;7.26;62.76;99876.81;6229674;22;20198;-70
2022/10/21 10:26:31;;;;;;;8.80;4.53;;;;;;;7.31;62.72;99871.28;6229209;22;20033;-69
2022/10/21 10:29:15;;;;;;;9.52;4.30;;;;;;;7.44;63.01;99868.81;6230464;22;20510;-70
2022/10/21 10:31:55;;;;;;;6.80;3.63;;;;;;;7.47;62.62;99869.50;6230312;22;20517;-70
2022/10/21 10:34:29;;;;;;;10.15;4.68;;;;;;;7.54;62.28;99864.72;6230486;22;20019;-70
2022/10/21 10:37:20;;;;;;;;;;;;;;;7.68;62.17;99864.78;6231188;22;20026;-70
2022/10/21 10:39:54;;;;;;;7.82;3.70;;;;;;;7.59;62.48;99870.59;6222983;22;19911;-70
2022/10/21 10:42:22;;;;;;;11.30;3.85;;;;;;;7.54;62.25;99860.28;6230436;22;20015;-70
2022/10/21 10:44:53;;;;;;;6.00;3.72;;;;;;;7.59;62.51;99858.19;6230930;22;20355;-70
2022/10/21 10:47:25;;;;;;;6.82;3.20;;;;;;;7.62;62.14;99854.53;6203285;22;20015;-71
2022/10/21 10:49:50;;;;;;;6.78;4.38;;;;;;;7.46;61.98;99846.56;6230595;22;20103;-70
2022/10/21 10:52:21;;;;;;;7.22;3.80;;;;;;;7.41;62.51;99851.28;6228680;22;20018;-69
2022/10/21 10:54:46;;;;;;;5.95;3.75;;;;;;;7.41;62.77;99837.16;6202507;22;20549;-70
2022/10/21 10:57:19;;;;;;;7.57;3.67;;;;;;;7.54;62.38;99848.81;6228292;22;20015;-69
2022/10/21 11:00:02;;;;;;;9.20;3.55;;;;;;;7.64;62.66;99848.19;6228366;22;20530;-70
2022/10/21 11:02:32;;;;;;;7.57;3.60;;;;;;;7.73;62.16;99843.31;6228474;22;20011;-68
2022/10/21 11:05:04;;;;;;;5.22;3.25;;;;;;;7.74;61.86;99840.56;6230678;22;20141;-70
2022/10/21 11:07:46;;;;;;;5.20;3.50;;;;;;;7.72;62.06;99844.25;6230242;22;20019;-70
2022/10/21 11:10:35;;;;;;;5.80;4.28;;;;;;;7.70;61.85;99851.44;6230231;22;20363;-69
2022/10/21 11:13:03;;;;;;;6.72;4.50;;;;;;;7.65;62.50;99855.22;6230215;22;20019;-68
2022/10/21 11:15:56;;;;;;;5.47;3.80;;;;;;;7.80;62.32;99855.28;6238940;22;20020;-69
2022/10/21 11:18:36;;;;;;;5.40;3.78;;;;;;;7.72;62.11;99852.22;6230138;22;20364;-68
2022/10/21 11:21:06;;;;;;;8.13;3.67;;;;;;;7.71;62.10;99845.19;6229703;22;20016;-68
2022/10/21 11:23:39;;;;;;;6.30;3.63;;;;;;;7.72;62.29;99852.22;6228308;22;20042;-67
2022/10/21 11:26:40;;;;;;;8.20;3.58;;;;;;;7.80;62.71;99839.34;6230718;22;20019;-68
2022/10/21 11:29:29;;;;;;;8.00;4.18;;;;;;;7.77;62.53;99844.84;6230257;22;20062;-68
2022/10/21 11:32:22;;;;;;;6.72;3.45;;;;;;;7.85;62.87;99839.97;6230683;22;20028;-72
2022/10/21 11:35:04;;;;;;;5.00;3.60;;;;;;;7.91;61.87;99836.94;6238742;22;20024;-71
2022/10/21 11:37:53;;;;;;;8.90;4.10;;;;;;;7.99;62.45;99832.91;6227908;22;20020;-72
2022/10/21 11:40:40;;;;;;;11.60;4.20;;;;;;;8.00;62.20;99823.16;6230181;22;20012;-72
2022/10/21 11:43:30;;;;;;;10.70;3.70;;;;;;;8.06;62.30;99814.81;6229038;22;20016;-72
2022/10/21 11:46:13;;;;;;;11.90;4.07;;;;;;;8.10;61.75;99815.50;6228752;22;20054;-69
2022/10/21 11:48:38;;;;;;;4.82;3.40;;;;;;;8.03;61.55;99807.88;6203179;22;20046;-71
2022/10/21 11:51:22;;;;;;;4.72;3.30;;;;;;;8.08;61.80;99810.28;6230250;22;20023;-72
2022/10/21 11:54:17;;;;;;;3.85;3.45;;;;;;;8.13;61.87;99812.66;6202550;22;20398;-71